Hawthorn, Alabama
Current Conditions -  °F | °C
As of 10:56 AM on Thursday 30 Oct 2014 (Local Time) from KMOB Reporting Station
Clear Clear  
Wind Chill: 67°   Ceiling: Unl
Heat Index: 67°   Visibility: 10mi
Dew Point: 42°   Wind: 16mph
Humidity: 40%   Direction: 20°NNE
Pressure: 30.12"   Gusts: 23mph
Location:  31.3942°N, 88.065°W
Report Text: KMOB 301556Z 02014G20KT 10SM CLR 19/06 A3012 RMK AO2 SLP197 T01940056
Loading
Personal Weather Stations






























Interactive Weather Map
Tropical Storm Tracking
New forecast layout! Learn more

10-Day Weather Forecast

Advertisements
Track Severe Weather on mobile